Granjeno, Texas
Current Conditions -  °F | °C
As of 6:53 PM on Saturday 25 Oct 2014 (Local Time) from KMFE Reporting Station
Clear Clear  
Wind Chill: 81°   Ceiling: Unl
Heat Index: 82°   Visibility: 10mi
Dew Point: 64°   Wind: 9mph
Humidity: 56%   Direction: 80°E
Pressure: 30.07"   Gusts: NA
Location:  26.2167°N, 98.325°W
Report Text: KMFE 252353Z 08008KT 10SM CLR 27/18 A3007 RMK AO2 SLP182 T02720178 10306 20272 55001
Loading
Personal Weather Stations






























Interactive Weather Map
Tropical Storm Tracking
New forecast layout! Learn more

10-Day Weather Forecast

Advertisements
Track Severe Weather on mobile